createdAt,value
2019-02-19T00:00:12.426Z,67.57
2019-02-19T00:02:41.026Z,67.34
2019-02-19T00:05:09.531Z,67.14
2019-02-19T00:07:38.031Z,67.22
2019-02-19T00:10:07.370Z,67.12
2019-02-19T00:12:35.888Z,67.27
2019-02-19T00:15:14.044Z,67.91
2019-02-19T00:17:41.474Z,68.88
2019-02-19T00:20:09.960Z,68.50
2019-02-19T00:22:38.479Z,67.81
2019-02-19T00:25:07.233Z,69.96
2019-02-19T00:27:35.750Z,68.55
2019-02-19T00:30:05.101Z,68.87
2019-02-19T00:32:33.615Z,68.47
2019-02-19T00:35:02.097Z,68.64
2019-02-19T00:37:30.614Z,70.42
2019-02-19T00:39:59.182Z,68.54
2019-02-19T00:42:27.716Z,68.85
2019-02-19T00:44:56.186Z,69.20
2019-02-19T00:47:24.707Z,68.09
2019-02-19T00:49:53.193Z,68.48
2019-02-19T00:52:21.677Z,69.41
2019-02-19T00:54:50.212Z,68.75
2019-02-19T00:57:18.707Z,68.60
2019-02-19T00:59:47.206Z,69.16
2019-02-19T01:02:15.699Z,68.72
2019-02-19T01:04:44.215Z,70.71
2019-02-19T01:07:12.710Z,70.16
2019-02-19T01:09:41.234Z,69.15
2019-02-19T01:12:09.729Z,69.05
2019-02-19T01:14:38.232Z,70.62
2019-02-19T01:17:06.740Z,70.51
2019-02-19T01:19:35.238Z,69.41
2019-02-19T01:22:03.719Z,69.80
2019-02-19T01:24:32.202Z,69.83
2019-02-19T01:27:00.692Z,69.64
2019-02-19T01:29:29.168Z,69.27
2019-02-19T01:31:57.657Z,68.93
2019-02-19T01:34:26.165Z,69.16
2019-02-19T01:36:54.625Z,69.44
2019-02-19T01:39:23.126Z,70.05
2019-02-19T01:41:51.593Z,69.61
2019-02-19T01:44:20.089Z,70.69
2019-02-19T01:46:48.553Z,71.01
2019-02-19T01:49:17.057Z,69.69
2019-02-19T01:51:45.557Z,69.91
2019-02-19T01:54:14.044Z,70.86
2019-02-19T01:56:42.519Z,69.59
2019-02-19T01:59:11.006Z,70.59
2019-02-19T02:01:39.469Z,69.28
2019-02-19T02:04:07.964Z,69.42
2019-02-19T02:06:36.424Z,69.98
2019-02-19T02:09:05.480Z,69.75
2019-02-19T02:11:33.959Z,70.51
2019-02-19T02:14:02.452Z,70.21
2019-02-19T02:16:30.931Z,69.47
2019-02-19T02:18:59.421Z,69.69
2019-02-19T02:21:27.891Z,70.90
2019-02-19T02:23:56.385Z,70.01
2019-02-19T02:26:24.862Z,69.73
2019-02-19T02:28:53.348Z,70.69
2019-02-19T02:31:21.826Z,70.13
2019-02-19T02:33:50.315Z,70.98
2019-02-19T02:36:18.807Z,70.88
2019-02-19T02:38:50.143Z,71.10
2019-02-19T02:41:18.624Z,69.85
2019-02-19T02:43:47.132Z,69.85
2019-02-19T02:46:15.601Z,71.13
2019-02-19T02:48:44.096Z,70.08
2019-02-19T02:51:12.581Z,70.20
2019-02-19T02:53:41.058Z,70.57
2019-02-19T02:56:09.546Z,71.03
2019-02-19T02:58:38.051Z,70.38
2019-02-19T03:01:06.504Z,71.18
2019-02-19T03:03:34.995Z,70.46
2019-02-19T03:06:10.637Z,70.93
2019-02-19T03:08:39.118Z,70.80
2019-02-19T03:11:07.677Z,70.65
2019-02-19T03:13:36.149Z,70.59
2019-02-19T03:16:04.668Z,70.86
2019-02-19T03:18:33.144Z,71.29
2019-02-19T03:21:01.631Z,70.57
2019-02-19T03:23:30.109Z,71.57
2019-02-19T03:25:58.593Z,71.80
2019-02-19T03:28:27.053Z,70.40
2019-02-19T03:30:55.557Z,70.45
2019-02-19T03:33:24.040Z,70.47
2019-02-19T03:35:52.517Z,70.92
2019-02-19T03:38:21.000Z,70.46
2019-02-19T03:40:49.506Z,70.93
2019-02-19T03:43:17.993Z,70.23
2019-02-19T03:45:46.497Z,71.05
2019-02-19T03:48:14.980Z,70.65
2019-02-19T03:50:43.488Z,71.07
2019-02-19T03:53:11.961Z,71.13
2019-02-19T03:55:40.528Z,70.64
2019-02-19T03:58:09.080Z,70.52
2019-02-19T04:00:37.663Z,70.59
2019-02-19T04:03:06.145Z,70.47
2019-02-19T04:05:34.731Z,70.42
2019-02-19T04:08:03.212Z,71.66
2019-02-19T04:10:31.774Z,70.93
2019-02-19T04:13:00.324Z,71.24
2019-02-19T04:15:28.908Z,70.90
2019-02-19T04:17:57.400Z,70.99
2019-02-19T04:20:25.884Z,70.62
2019-02-19T04:22:54.362Z,71.36
2019-02-19T04:25:22.885Z,70.92
2019-02-19T04:27:51.361Z,71.58
2019-02-19T04:30:19.867Z,70.93
2019-02-19T04:32:48.375Z,72.08
2019-02-19T04:35:16.878Z,71.17
2019-02-19T04:37:45.348Z,71.85
2019-02-19T04:40:13.839Z,71.34
2019-02-19T04:42:42.324Z,72.02
2019-02-19T04:45:10.844Z,71.53
2019-02-19T04:47:39.289Z,71.13
2019-02-19T04:50:08.845Z,71.70
2019-02-19T04:52:37.338Z,70.87
2019-02-19T04:55:06.759Z,71.28
2019-02-19T04:57:35.259Z,70.93
2019-02-19T05:00:04.858Z,71.22
2019-02-19T05:02:33.340Z,71.13
2019-02-19T05:05:01.839Z,71.21
2019-02-19T05:07:30.305Z,71.41
2019-02-19T05:09:58.784Z,71.10
2019-02-19T05:12:27.307Z,71.64
2019-02-19T05:14:55.793Z,71.12
2019-02-19T05:17:24.302Z,71.31
2019-02-19T05:19:52.783Z,72.15
2019-02-19T05:22:21.303Z,72.04
2019-02-19T05:24:49.782Z,71.32
2019-02-19T05:27:18.276Z,72.40
2019-02-19T05:29:46.740Z,72.04
2019-02-19T05:32:15.240Z,71.42
2019-02-19T05:34:43.705Z,71.54
2019-02-19T05:37:12.222Z,72.91
2019-02-19T05:39:40.681Z,72.51
2019-02-19T05:42:09.268Z,72.88
2019-02-19T05:44:37.745Z,71.97
2019-02-19T05:47:06.253Z,72.62
2019-02-19T05:49:34.733Z,72.06
2019-02-19T05:52:03.234Z,72.65
2019-02-19T05:54:31.823Z,72.23
2019-02-19T05:57:00.332Z,72.25
2019-02-19T05:59:28.819Z,72.16
2019-02-19T06:01:57.312Z,72.15
2019-02-19T06:04:25.799Z,71.82
2019-02-19T06:06:54.280Z,72.00
2019-02-19T06:09:22.790Z,72.93
2019-02-19T06:11:51.297Z,72.02
2019-02-19T06:14:19.825Z,71.88
2019-02-19T06:16:48.333Z,72.31
2019-02-19T06:19:16.823Z,72.95
2019-02-19T06:21:45.321Z,72.00
2019-02-19T06:24:13.807Z,73.14
2019-02-19T06:26:42.317Z,72.83
2019-02-19T06:29:10.782Z,72.26
2019-02-19T06:31:39.290Z,71.96
2019-02-19T06:34:07.769Z,72.73
2019-02-19T06:36:36.277Z,71.95
2019-02-19T06:39:05.549Z,72.19
2019-02-19T06:41:34.042Z,73.25
2019-02-19T06:44:02.560Z,71.80
2019-02-19T06:46:31.003Z,72.70
2019-02-19T06:48:59.505Z,72.75
2019-02-19T06:51:27.968Z,72.13
2019-02-19T06:53:56.501Z,72.84
2019-02-19T06:56:24.981Z,72.28
2019-02-19T06:58:53.471Z,72.13
2019-02-19T07:01:23.588Z,72.13
2019-02-19T07:03:59.654Z,72.26
2019-02-19T07:06:28.162Z,72.46
2019-02-19T07:08:56.639Z,71.94
2019-02-19T07:11:25.148Z,71.97
2019-02-19T07:13:53.653Z,72.03
2019-02-19T07:16:22.114Z,72.11
2019-02-19T07:18:50.614Z,71.86
2019-02-19T07:21:19.066Z,71.92
2019-02-19T07:23:47.577Z,71.68
2019-02-19T07:26:16.037Z,71.70
2019-02-19T07:28:44.518Z,71.99
2019-02-19T07:31:13.004Z,71.83
2019-02-19T07:33:41.506Z,71.73
2019-02-19T07:36:09.972Z,71.70
2019-02-19T07:38:38.476Z,71.66
2019-02-19T07:41:06.932Z,71.68
2019-02-19T07:43:35.441Z,71.49
2019-02-19T07:46:03.922Z,71.33
2019-02-19T07:48:32.417Z,71.28
2019-02-19T07:51:00.923Z,71.19
2019-02-19T07:53:29.380Z,71.17
2019-02-19T07:55:57.847Z,71.16
2019-02-19T07:58:26.329Z,71.07
2019-02-19T08:00:54.806Z,71.05
2019-02-19T08:03:23.291Z,70.52
2019-02-19T08:05:51.767Z,70.78
2019-02-19T08:08:20.253Z,70.61
2019-02-19T08:10:48.731Z,70.27
2019-02-19T08:13:17.224Z,70.44
2019-02-19T08:15:45.696Z,70.27
2019-02-19T08:18:14.174Z,70.09
2019-02-19T08:20:42.689Z,70.22
2019-02-19T08:23:11.168Z,69.79
2019-02-19T08:25:39.654Z,69.72
2019-02-19T08:28:08.139Z,69.51
2019-02-19T08:30:36.652Z,69.61
2019-02-19T08:33:05.125Z,69.05
2019-02-19T08:35:33.686Z,68.66
2019-02-19T08:38:02.166Z,67.85
2019-02-19T08:40:30.746Z,67.70
2019-02-19T08:42:59.221Z,68.12
2019-02-19T08:45:27.715Z,66.98
2019-02-19T08:47:56.194Z,67.33
2019-02-19T08:50:24.692Z,67.20
2019-02-19T08:52:53.163Z,67.74
2019-02-19T08:55:21.657Z,67.23
2019-02-19T08:57:50.117Z,67.70
2019-02-19T09:00:18.607Z,67.11
2019-02-19T09:02:47.087Z,66.58
2019-02-19T09:05:15.585Z,66.49
2019-02-19T09:07:44.071Z,66.44
2019-02-19T09:10:13.107Z,67.27
2019-02-19T09:12:41.576Z,66.88
2019-02-19T09:15:11.609Z,66.97
2019-02-19T09:17:40.065Z,66.01
2019-02-19T09:20:09.821Z,66.79
2019-02-19T09:22:38.302Z,66.82
2019-02-19T09:25:08.671Z,66.65
2019-02-19T09:27:37.176Z,66.37
2019-02-19T09:30:11.647Z,66.65
2019-02-19T09:32:40.179Z,66.65
2019-02-19T09:35:09.810Z,66.25
2019-02-19T09:37:38.298Z,66.40
2019-02-19T09:40:09.355Z,66.59
2019-02-19T09:42:37.843Z,66.64
2019-02-19T09:45:08.892Z,66.88
2019-02-19T09:47:37.389Z,66.56
2019-02-19T09:50:09.130Z,65.99
2019-02-19T09:52:37.611Z,66.92
2019-02-19T09:55:07.247Z,66.76
2019-02-19T09:57:35.741Z,66.06
2019-02-19T10:00:07.224Z,66.41
2019-02-19T10:02:35.703Z,66.75
2019-02-19T10:05:05.340Z,66.61
2019-02-19T10:07:33.824Z,66.61
2019-02-19T10:10:02.329Z,66.84
2019-02-19T10:12:30.816Z,67.08
2019-02-19T10:14:59.307Z,66.93
2019-02-19T10:17:27.780Z,67.10
2019-02-19T10:19:56.269Z,67.16
2019-02-19T10:22:24.749Z,67.06
2019-02-19T10:24:53.233Z,67.58
2019-02-19T10:27:21.711Z,67.54
2019-02-19T10:29:50.239Z,67.52
2019-02-19T10:32:18.688Z,67.44
2019-02-19T10:34:47.195Z,67.67
2019-02-19T10:37:15.734Z,67.62
2019-02-19T10:39:44.225Z,67.27
2019-02-19T10:42:12.702Z,67.42
2019-02-19T10:44:41.203Z,67.73
2019-02-19T10:47:09.738Z,67.73
2019-02-19T10:49:38.211Z,67.80
2019-02-19T10:52:06.717Z,68.29
2019-02-19T10:54:38.735Z,67.97
2019-02-19T10:57:07.217Z,68.07
2019-02-19T10:59:35.714Z,67.81
2019-02-19T11:02:04.216Z,67.91
2019-02-19T11:04:32.688Z,68.00
2019-02-19T11:07:01.173Z,67.92
2019-02-19T11:09:29.682Z,68.24
2019-02-19T11:11:58.197Z,67.94
2019-02-19T11:14:26.665Z,67.80
2019-02-19T11:16:55.136Z,67.58
2019-02-19T11:19:23.628Z,67.91
2019-02-19T11:21:52.171Z,68.15
2019-02-19T11:24:20.669Z,67.54
2019-02-19T11:26:49.144Z,67.89
2019-02-19T11:29:17.627Z,67.57
2019-02-19T11:31:46.127Z,67.33
2019-02-19T11:34:14.608Z,67.30
2019-02-19T11:36:43.097Z,67.56
2019-02-19T11:39:12.217Z,67.27
2019-02-19T11:41:40.703Z,67.10
2019-02-19T11:44:09.181Z,66.91
2019-02-19T11:46:37.683Z,67.03
2019-02-19T11:49:06.177Z,67.09
2019-02-19T11:51:34.696Z,66.95
2019-02-19T11:54:03.165Z,67.13
2019-02-19T11:56:31.655Z,66.89
2019-02-19T11:59:00.140Z,67.02
2019-02-19T12:01:28.653Z,67.04
2019-02-19T12:03:57.104Z,66.90
2019-02-19T12:06:25.650Z,66.93
2019-02-19T12:08:54.136Z,67.20
2019-02-19T12:11:22.646Z,67.49
2019-02-19T12:13:51.127Z,67.36
2019-02-19T12:16:19.635Z,67.74
2019-02-19T12:18:48.090Z,67.82
2019-02-19T12:21:16.575Z,67.57
2019-02-19T12:23:45.057Z,67.45
2019-02-19T12:26:13.573Z,67.24
2019-02-19T12:28:42.058Z,66.88
2019-02-19T12:31:10.567Z,67.03
2019-02-19T12:33:39.039Z,67.37
2019-02-19T12:36:07.537Z,66.83
2019-02-19T12:38:36.024Z,65.96
2019-02-19T12:41:04.520Z,66.43
2019-02-19T12:43:33.004Z,66.60
2019-02-19T12:46:01.500Z,66.93
2019-02-19T12:48:29.983Z,66.77
2019-02-19T12:50:58.492Z,66.93
2019-02-19T12:53:26.979Z,66.98
2019-02-19T12:55:55.502Z,66.32
2019-02-19T12:58:23.965Z,66.66
2019-02-19T13:00:52.473Z,66.79
2019-02-19T13:03:21.314Z,66.32
2019-02-19T13:05:50.675Z,66.53
2019-02-19T13:08:19.155Z,66.32
2019-02-19T13:10:47.651Z,66.09
2019-02-19T13:13:16.132Z,66.21
2019-02-19T13:15:44.660Z,66.22
2019-02-19T13:18:13.150Z,66.31
2019-02-19T13:20:41.644Z,66.78
2019-02-19T13:23:10.157Z,66.17
2019-02-19T13:25:38.669Z,66.22
2019-02-19T13:28:07.150Z,66.34
2019-02-19T13:30:35.641Z,66.55
2019-02-19T13:33:06.331Z,66.60
2019-02-19T13:35:34.831Z,65.47
2019-02-19T13:38:03.309Z,65.55
2019-02-19T13:40:31.813Z,65.03
2019-02-19T13:43:00.296Z,65.01
2019-02-19T13:45:28.813Z,64.87
2019-02-19T13:48:05.501Z,65.01
2019-02-19T13:50:30.552Z,64.97
2019-02-19T13:53:03.625Z,64.66
2019-02-19T13:55:33.768Z,64.52
2019-02-19T13:58:02.244Z,64.49
2019-02-19T14:00:32.464Z,64.07
2019-02-19T14:03:00.971Z,64.51
2019-02-19T14:05:29.468Z,64.45
2019-02-19T14:07:57.944Z,63.96
2019-02-19T14:10:26.436Z,64.09
2019-02-19T14:12:54.935Z,64.50
2019-02-19T14:15:40.150Z,64.59
2019-02-19T14:18:10.267Z,64.56
2019-02-19T14:20:46.198Z,64.10
2019-02-19T14:23:22.357Z,64.39
2019-02-19T14:26:10.872Z,64.36
2019-02-19T14:28:43.803Z,64.08
2019-02-19T14:31:31.834Z,64.12
2019-02-19T14:34:07.685Z,64.04
2019-02-19T14:36:53.737Z,63.77
2019-02-19T14:39:29.943Z,63.55
2019-02-19T14:42:02.828Z,63.68
2019-02-19T14:44:47.984Z,63.38
2019-02-19T14:47:30.118Z,63.58
2019-02-19T14:50:09.439Z,62.63
2019-02-19T14:52:39.564Z,63.38
2019-02-19T14:55:27.976Z,63.44
2019-02-19T14:57:58.117Z,62.89
2019-02-19T15:00:44.663Z,63.42
2019-02-19T15:03:23.863Z,63.36
2019-02-19T15:06:10.224Z,63.10
2019-02-19T15:08:40.381Z,63.20
2019-02-19T15:11:19.101Z,63.48
2019-02-19T15:13:55.005Z,63.48
2019-02-19T15:16:30.979Z,63.56
2019-02-19T15:19:10.121Z,63.68
2019-02-19T15:24:36.390Z,63.65
2019-02-19T15:27:12.198Z,63.63
2019-02-19T15:29:45.017Z,63.67
2019-02-19T15:32:31.607Z,63.67
2019-02-19T15:35:17.815Z,63.54
2019-02-19T15:37:53.712Z,63.64
2019-02-19T15:40:35.736Z,63.53
2019-02-19T15:43:05.919Z,63.47
2019-02-19T15:45:54.226Z,63.47
2019-02-19T15:48:40.882Z,63.22
2019-02-19T15:51:23.011Z,63.39
2019-02-19T15:53:58.797Z,63.31
2019-02-19T15:59:40.268Z,63.25
2019-02-19T16:02:10.389Z,63.42
2019-02-19T16:04:40.518Z,63.26
2019-02-19T16:07:19.261Z,63.23
2019-02-19T16:10:05.297Z,63.06
2019-02-19T16:12:47.455Z,62.96
2019-02-19T16:15:17.581Z,62.79
2019-02-19T16:18:02.570Z,62.81
2019-02-19T16:20:35.641Z,62.42
2019-02-19T16:23:08.780Z,62.29
2019-02-19T16:25:50.802Z,62.15
2019-02-19T16:28:30.164Z,62.02
2019-02-19T16:31:03.023Z,62.35
2019-02-19T16:33:41.638Z,62.14
2019-02-19T16:36:11.885Z,62.39
2019-02-19T16:38:44.805Z,62.31
2019-02-19T16:41:18.089Z,62.24
2019-02-19T16:43:48.229Z,62.14
2019-02-19T16:46:18.345Z,61.85
2019-02-19T16:48:57.859Z,62.18
2019-02-19T16:51:28.001Z,62.08
2019-02-19T16:54:04.072Z,61.78
2019-02-19T16:56:34.192Z,61.95
2019-02-19T16:59:20.417Z,61.82
2019-02-19T17:01:53.308Z,61.42
2019-02-19T17:04:39.435Z,61.93
2019-02-19T17:07:21.877Z,61.86
2019-02-19T17:09:52.026Z,61.73
2019-02-19T17:12:27.892Z,62.11
2019-02-19T17:15:09.951Z,62.29
2019-02-19T17:17:40.051Z,62.38
2019-02-19T17:20:21.292Z,61.66
2019-02-19T17:22:47.612Z,62.02
2019-02-19T17:25:17.760Z,61.59
2019-02-19T17:27:47.878Z,62.01
2019-02-19T17:30:30.195Z,62.02
2019-02-19T17:33:00.314Z,61.95
2019-02-19T17:35:30.437Z,61.78
2019-02-19T17:38:00.553Z,61.88
2019-02-19T17:40:46.901Z,61.96
2019-02-19T17:43:25.854Z,61.86
2019-02-19T17:46:07.974Z,61.91
2019-02-19T17:48:47.327Z,61.96
2019-02-19T17:51:26.761Z,61.61
2019-02-19T17:54:11.983Z,61.95
2019-02-19T17:56:54.446Z,61.84
2019-02-19T17:59:32.131Z,62.02
2019-02-19T18:02:02.280Z,62.03
2019-02-19T18:04:34.869Z,62.03
2019-02-19T18:07:04.999Z,62.21
2019-02-19T18:09:40.706Z,62.42
2019-02-19T18:14:56.536Z,62.50
2019-02-19T18:17:29.495Z,62.55
2019-02-19T18:19:57.956Z,62.55
2019-02-19T18:22:26.456Z,62.62
2019-02-19T18:24:54.928Z,62.74
2019-02-19T18:27:23.409Z,62.86
2019-02-19T18:29:51.866Z,62.81
2019-02-19T18:32:20.347Z,62.76
2019-02-19T18:34:48.802Z,62.58
2019-02-19T18:37:17.308Z,62.52
2019-02-19T18:39:45.781Z,62.58
2019-02-19T18:42:14.284Z,62.65
2019-02-19T18:44:42.749Z,62.69
2019-02-19T18:47:11.261Z,62.80
2019-02-19T18:49:39.852Z,62.69
2019-02-19T18:52:08.344Z,62.77
2019-02-19T18:54:36.837Z,62.75
2019-02-19T18:57:06.908Z,62.74
2019-02-19T18:59:35.412Z,62.83
2019-02-19T19:02:03.920Z,62.81
2019-02-19T19:04:32.446Z,62.78
2019-02-19T19:07:00.932Z,62.94
2019-02-19T19:09:29.403Z,62.97
2019-02-19T19:11:57.894Z,62.92
2019-02-19T19:14:26.365Z,63.07
2019-02-19T19:16:54.858Z,62.96
2019-02-19T19:19:23.329Z,63.09
2019-02-19T19:21:51.828Z,63.17
2019-02-19T19:24:23.310Z,63.12
2019-02-19T19:26:51.882Z,63.12
2019-02-19T19:29:20.513Z,63.25
2019-02-19T19:31:49.578Z,63.37
2019-02-19T19:34:18.072Z,63.96
2019-02-19T19:36:46.540Z,65.23
2019-02-19T19:39:15.012Z,65.09
2019-02-19T19:41:43.489Z,66.89
2019-02-19T19:44:11.987Z,70.20
2019-02-19T19:46:40.524Z,71.05
2019-02-19T19:49:09.035Z,73.64
2019-02-19T19:51:37.499Z,76.40
2019-02-19T19:54:06.000Z,74.50
2019-02-19T19:56:34.458Z,74.80
2019-02-19T19:59:02.958Z,75.56
2019-02-19T20:01:31.423Z,74.83
2019-02-19T20:03:59.902Z,75.31
2019-02-19T20:06:28.372Z,78.15
2019-02-19T20:08:56.872Z,75.07
2019-02-19T20:11:25.332Z,77.85
2019-02-19T20:13:53.830Z,75.00
2019-02-19T20:16:22.313Z,77.57
2019-02-19T20:18:50.791Z,76.70
2019-02-19T20:21:26.386Z,76.81
2019-02-19T20:23:50.157Z,79.98
2019-02-19T20:26:18.661Z,77.76
2019-02-19T20:28:47.150Z,78.77
2019-02-19T20:31:15.623Z,80.10
2019-02-19T20:33:44.126Z,78.12
2019-02-19T20:36:12.614Z,80.18
2019-02-19T20:38:41.104Z,78.51
2019-02-19T20:41:09.579Z,77.45
2019-02-19T20:43:38.081Z,79.37
2019-02-19T20:46:06.577Z,78.70
2019-02-19T20:48:35.066Z,78.50
2019-02-19T20:51:03.545Z,81.70
2019-02-19T20:53:32.034Z,78.88
2019-02-19T20:56:00.504Z,81.96
2019-02-19T20:58:29.024Z,79.68
2019-02-19T21:00:57.466Z,81.14
2019-02-19T21:03:25.963Z,79.96
2019-02-19T21:05:54.470Z,82.12
2019-02-19T21:08:22.919Z,80.01
2019-02-19T21:10:51.382Z,79.20
2019-02-19T21:13:19.883Z,79.88
2019-02-19T21:15:48.362Z,79.90
2019-02-19T21:18:23.440Z,82.25
2019-02-19T21:20:53.205Z,80.96
2019-02-19T21:23:21.673Z,82.23
2019-02-19T21:25:50.172Z,80.52
2019-02-19T21:28:39.684Z,81.14
2019-02-19T21:31:08.181Z,80.43
2019-02-19T21:33:36.695Z,80.13
2019-02-19T21:36:05.177Z,79.59
2019-02-19T21:38:33.674Z,79.75
2019-02-19T21:41:02.157Z,81.63
2019-02-19T21:43:30.702Z,81.48
2019-02-19T21:45:59.188Z,79.08
2019-02-19T21:48:27.675Z,81.52
2019-02-19T21:50:56.206Z,80.55
2019-02-19T21:53:24.637Z,80.84
2019-02-19T21:55:53.112Z,81.38
2019-02-19T21:58:21.625Z,79.88
2019-02-19T22:00:50.112Z,79.32
2019-02-19T22:03:18.600Z,79.58
2019-02-19T22:05:47.095Z,80.62
2019-02-19T22:08:15.602Z,80.71
2019-02-19T22:10:44.052Z,79.71
2019-02-19T22:13:12.621Z,79.93
2019-02-19T22:15:41.097Z,82.16
2019-02-19T22:18:09.554Z,80.80
2019-02-19T22:20:45.405Z,79.29
2019-02-19T22:23:13.918Z,79.43
2019-02-19T22:25:42.446Z,80.12
2019-02-19T22:28:10.992Z,79.56
2019-02-19T22:30:39.469Z,79.50
2019-02-19T22:33:07.965Z,79.88
2019-02-19T22:35:36.502Z,81.61
2019-02-19T22:38:04.977Z,80.52
2019-02-19T22:40:33.469Z,79.92
2019-02-19T22:43:01.949Z,79.64
2019-02-19T22:45:30.465Z,80.69
2019-02-19T22:47:58.933Z,80.16
2019-02-19T22:50:27.430Z,79.65
2019-02-19T22:52:55.960Z,79.77
2019-02-19T22:55:42.209Z,80.84
2019-02-19T22:58:10.825Z,80.54
2019-02-19T23:00:49.791Z,79.56
2019-02-19T23:03:27.886Z,79.99
2019-02-19T23:05:56.371Z,80.62
2019-02-19T23:08:24.996Z,80.13
2019-02-19T23:10:53.473Z,80.86
2019-02-19T23:13:21.944Z,80.78
2019-02-19T23:15:50.500Z,81.03
2019-02-19T23:18:18.958Z,80.87
2019-02-19T23:20:47.641Z,80.20
2019-02-19T23:23:16.084Z,81.02
2019-02-19T23:25:44.640Z,80.30
2019-02-19T23:28:13.121Z,80.91
2019-02-19T23:30:41.623Z,80.57
2019-02-19T23:33:10.104Z,81.35
2019-02-19T23:35:43.201Z,80.97
2019-02-19T23:38:11.724Z,82.08
2019-02-19T23:40:40.206Z,81.44
2019-02-19T23:43:08.709Z,80.66
2019-02-19T23:45:37.272Z,81.15
2019-02-19T23:48:05.736Z,82.49
2019-02-19T23:50:34.241Z,82.43
2019-02-19T23:53:02.716Z,82.16
2019-02-19T23:55:31.236Z,81.54
2019-02-19T23:57:59.763Z,82.07
